createdAt,value
2019-05-30T00:00:06.702Z,90.19
2019-05-30T00:02:23.294Z,90.55
2019-05-30T00:04:51.834Z,90.41
2019-05-30T00:07:20.424Z,90.08
2019-05-30T00:09:48.936Z,89.64
2019-05-30T00:12:17.461Z,89.31
2019-05-30T00:14:46.427Z,89.15
2019-05-30T00:17:14.872Z,89.15
2019-05-30T00:19:43.381Z,89.36
2019-05-30T00:22:11.880Z,89.21
2019-05-30T00:24:40.781Z,89.36
2019-05-30T00:27:09.300Z,88.72
2019-05-30T00:29:37.797Z,88.30
2019-05-30T00:32:06.333Z,88.18
2019-05-30T00:34:34.845Z,88.23
2019-05-30T00:37:04.102Z,88.21
2019-05-30T00:39:32.732Z,87.99
2019-05-30T00:42:02.078Z,87.56
2019-05-30T00:44:30.588Z,87.50
2019-05-30T00:47:00.496Z,87.86
2019-05-30T00:49:29.079Z,87.86
2019-05-30T00:51:58.348Z,87.52
2019-05-30T00:54:26.847Z,87.45
2019-05-30T00:56:56.508Z,87.56
2019-05-30T00:59:25.079Z,87.63
2019-05-30T01:01:53.636Z,87.27
2019-05-30T01:04:22.207Z,87.33
2019-05-30T01:06:50.710Z,87.53
2019-05-30T01:09:19.212Z,87.98
2019-05-30T01:11:47.725Z,88.11
2019-05-30T01:14:16.222Z,87.80
2019-05-30T01:16:44.808Z,87.48
2019-05-30T01:19:13.295Z,87.51
2019-05-30T01:21:41.935Z,87.72
2019-05-30T01:24:10.462Z,87.92
2019-05-30T01:26:38.953Z,87.84
2019-05-30T01:29:07.815Z,87.70
2019-05-30T01:31:36.364Z,87.68
2019-05-30T01:34:05.882Z,87.53
2019-05-30T01:36:34.412Z,87.30
2019-05-30T01:39:03.833Z,87.23
2019-05-30T01:41:32.351Z,87.24
2019-05-30T01:44:01.920Z,87.46
2019-05-30T01:46:30.467Z,87.70
2019-05-30T01:49:00.162Z,87.67
2019-05-30T01:51:28.814Z,87.71
2019-05-30T01:53:58.342Z,87.64
2019-05-30T01:56:26.849Z,87.67
2019-05-30T01:58:55.385Z,87.97
2019-05-30T02:01:25.405Z,87.99
2019-05-30T02:03:54.267Z,87.47
2019-05-30T02:06:22.812Z,87.31
2019-05-30T02:08:51.348Z,87.45
2019-05-30T02:11:19.816Z,87.69
2019-05-30T02:13:48.322Z,87.83
2019-05-30T02:16:16.883Z,87.96
2019-05-30T02:18:45.388Z,87.97
2019-05-30T02:21:13.900Z,88.31
2019-05-30T02:23:42.393Z,88.34
2019-05-30T02:26:10.896Z,87.98
2019-05-30T02:28:39.375Z,88.44
2019-05-30T02:31:09.650Z,88.38
2019-05-30T02:33:38.082Z,88.48
2019-05-30T02:36:08.493Z,88.66
2019-05-30T02:38:36.798Z,88.80
2019-05-30T02:41:06.203Z,89.09
2019-05-30T02:43:35.554Z,89.06
2019-05-30T02:46:05.929Z,88.65
2019-05-30T02:48:34.575Z,88.61
2019-05-30T02:51:03.419Z,88.33
2019-05-30T02:53:31.972Z,88.70
2019-05-30T02:56:01.412Z,88.95
2019-05-30T02:58:29.952Z,88.74
2019-05-30T03:00:58.476Z,88.53
2019-05-30T03:03:26.992Z,88.50
2019-05-30T03:05:55.789Z,88.74
2019-05-30T03:08:24.548Z,89.26
2019-05-30T03:10:53.182Z,89.31
2019-05-30T03:13:22.168Z,89.43
2019-05-30T03:15:51.092Z,89.49
2019-05-30T03:18:19.715Z,89.49
2019-05-30T03:20:48.660Z,89.62
2019-05-30T03:23:17.213Z,89.55
2019-05-30T03:25:45.870Z,89.44
2019-05-30T03:28:14.421Z,89.56
2019-05-30T03:30:45.160Z,89.74
2019-05-30T03:33:32.324Z,89.48
2019-05-30T03:35:44.765Z,89.51
2019-05-30T03:38:15.482Z,89.48
2019-05-30T03:40:43.823Z,89.41
2019-05-30T03:43:13.820Z,89.55
2019-05-30T03:45:44.492Z,89.95
2019-05-30T03:48:16.218Z,90.15
2019-05-30T03:50:48.112Z,90.21
2019-05-30T03:53:16.843Z,89.66
2019-05-30T03:55:48.383Z,89.38
2019-05-30T03:58:44.350Z,89.61
2019-05-30T04:01:15.871Z,89.76
2019-05-30T04:03:56.179Z,89.50
2019-05-30T04:06:33.891Z,89.37
2019-05-30T04:09:09.084Z,89.58
2019-05-30T04:11:55.221Z,89.68
2019-05-30T04:14:28.961Z,89.52
2019-05-30T04:16:57.541Z,89.57
2019-05-30T04:19:26.062Z,89.36
2019-05-30T04:21:54.591Z,89.35
2019-05-30T04:24:23.123Z,89.44
2019-05-30T04:26:51.646Z,89.29
2019-05-30T04:29:20.140Z,89.24
2019-05-30T04:31:48.645Z,89.02
2019-05-30T04:34:19.414Z,88.99
2019-05-30T04:36:47.364Z,88.68
2019-05-30T04:39:17.162Z,88.76
2019-05-30T04:41:45.833Z,88.82
2019-05-30T04:44:16.097Z,88.43
2019-05-30T04:46:44.625Z,88.23
2019-05-30T04:49:14.472Z,88.76
2019-05-30T04:51:43.340Z,88.80
2019-05-30T04:54:12.621Z,88.88
2019-05-30T04:56:41.511Z,88.76
2019-05-30T04:59:10.901Z,88.63
2019-05-30T05:01:39.554Z,88.83
2019-05-30T05:04:08.094Z,89.05
2019-05-30T05:06:36.566Z,89.30
2019-05-30T05:09:07.182Z,89.02
2019-05-30T05:11:35.681Z,88.82
2019-05-30T05:14:04.243Z,88.91
2019-05-30T05:16:35.987Z,88.56
2019-05-30T05:19:02.937Z,88.58
2019-05-30T05:21:31.528Z,88.06
2019-05-30T05:24:00.033Z,88.13
2019-05-30T05:26:28.505Z,88.52
2019-05-30T05:28:57.034Z,88.64
2019-05-30T05:31:25.534Z,88.75
2019-05-30T05:33:57.179Z,88.89
2019-05-30T05:36:25.179Z,88.86
2019-05-30T05:38:53.716Z,88.92
2019-05-30T05:41:22.402Z,88.90
2019-05-30T05:43:50.815Z,88.65
2019-05-30T05:46:20.364Z,88.51
2019-05-30T05:48:48.912Z,88.48
2019-05-30T05:51:18.532Z,88.28
2019-05-30T05:53:47.048Z,88.44
2019-05-30T05:56:16.812Z,88.36
2019-05-30T05:58:45.425Z,88.31
2019-05-30T06:01:13.930Z,88.19
2019-05-30T06:03:42.536Z,87.75
2019-05-30T06:06:11.050Z,87.79
2019-05-30T06:08:39.561Z,87.64
2019-05-30T06:11:08.077Z,87.58
2019-05-30T06:13:36.565Z,87.68
2019-05-30T06:16:05.122Z,87.69
2019-05-30T06:18:33.631Z,87.70
2019-05-30T06:21:02.190Z,87.83
2019-05-30T06:23:30.685Z,87.85
2019-05-30T06:25:59.188Z,87.95
2019-05-30T06:28:28.227Z,87.95
2019-05-30T06:30:59.023Z,87.95
2019-05-30T06:33:27.251Z,87.94
2019-05-30T06:35:55.742Z,87.92
2019-05-30T06:38:25.293Z,87.52
2019-05-30T06:40:53.785Z,87.21
2019-05-30T06:43:24.215Z,87.17
2019-05-30T06:45:52.845Z,87.26
2019-05-30T06:48:22.579Z,87.28
2019-05-30T06:50:51.190Z,87.17
2019-05-30T06:53:20.908Z,87.08
2019-05-30T06:55:49.508Z,87.06
2019-05-30T06:58:18.231Z,86.62
2019-05-30T07:00:46.841Z,86.77
2019-05-30T07:03:15.442Z,86.88
2019-05-30T07:05:44.315Z,86.99
2019-05-30T07:08:12.993Z,86.99
2019-05-30T07:10:41.766Z,87.22
2019-05-30T07:13:10.276Z,87.64
2019-05-30T07:15:38.805Z,87.86
2019-05-30T07:18:07.373Z,87.44
2019-05-30T07:20:35.922Z,86.28
2019-05-30T07:23:04.560Z,85.52
2019-05-30T07:25:34.113Z,84.02
2019-05-30T07:28:02.710Z,82.25
2019-05-30T07:30:32.059Z,80.92
2019-05-30T07:33:00.583Z,77.52
2019-05-30T07:35:30.007Z,75.56
2019-05-30T07:37:58.550Z,76.05
2019-05-30T07:40:27.048Z,72.18
2019-05-30T07:42:55.509Z,71.13
2019-05-30T07:45:24.870Z,70.94
2019-05-30T07:47:53.460Z,71.30
2019-05-30T07:50:22.134Z,69.31
2019-05-30T07:52:50.625Z,69.62
2019-05-30T07:55:20.083Z,67.45
2019-05-30T07:57:48.570Z,66.92
2019-05-30T08:00:17.730Z,64.65
2019-05-30T08:02:46.231Z,64.38
2019-05-30T08:05:23.957Z,63.83
2019-05-30T08:07:45.410Z,63.46
2019-05-30T08:10:14.429Z,63.44
2019-05-30T08:12:42.919Z,62.52
2019-05-30T08:15:12.597Z,61.66
2019-05-30T08:17:44.263Z,60.99
2019-05-30T08:20:11.860Z,59.14
2019-05-30T08:22:40.384Z,58.49
2019-05-30T08:25:10.001Z,58.75
2019-05-30T08:27:38.788Z,58.98
2019-05-30T08:30:12.629Z,58.89
2019-05-30T08:32:41.132Z,56.98
2019-05-30T08:35:10.050Z,55.63
2019-05-30T08:37:39.412Z,54.15
2019-05-30T08:40:09.523Z,51.01
2019-05-30T08:42:38.542Z,52.37
2019-05-30T08:45:10.258Z,54.61
2019-05-30T08:47:40.406Z,51.83
2019-05-30T08:50:10.904Z,52.66
2019-05-30T08:52:40.870Z,51.13
2019-05-30T08:55:09.979Z,53.59
2019-05-30T08:57:38.739Z,50.73
2019-05-30T09:00:09.315Z,51.03
2019-05-30T09:02:38.837Z,50.99
2019-05-30T09:05:08.602Z,50.01
2019-05-30T09:07:38.264Z,51.03
2019-05-30T09:10:08.114Z,52.25
2019-05-30T09:12:38.609Z,51.14
2019-05-30T09:15:09.626Z,49.57
2019-05-30T09:17:39.344Z,50.16
2019-05-30T09:20:09.424Z,49.16
2019-05-30T09:22:39.424Z,49.37
2019-05-30T09:25:11.729Z,49.42
2019-05-30T09:27:41.418Z,49.41
2019-05-30T09:30:13.395Z,47.12
2019-05-30T09:32:43.209Z,47.97
2019-05-30T09:35:13.101Z,47.16
2019-05-30T09:37:42.386Z,47.95
2019-05-30T09:40:12.769Z,48.76
2019-05-30T09:42:44.214Z,48.50
2019-05-30T09:45:12.800Z,48.29
2019-05-30T09:47:43.235Z,49.76
2019-05-30T09:50:11.917Z,48.75
2019-05-30T09:52:41.682Z,49.39
2019-05-30T09:55:11.042Z,48.93
2019-05-30T09:57:42.339Z,47.63
2019-05-30T10:00:13.127Z,48.76
2019-05-30T10:02:43.009Z,47.93
2019-05-30T10:05:12.329Z,48.74
2019-05-30T10:07:40.911Z,47.80
2019-05-30T10:10:09.951Z,47.58
2019-05-30T10:12:38.470Z,49.08
2019-05-30T10:15:09.555Z,47.07
2019-05-30T10:17:38.069Z,46.63
2019-05-30T10:20:08.315Z,46.91
2019-05-30T10:22:36.800Z,46.39
2019-05-30T10:25:07.212Z,46.33
2019-05-30T10:27:35.787Z,47.05
2019-05-30T10:30:09.319Z,47.64
2019-05-30T10:32:37.855Z,47.38
2019-05-30T10:35:06.908Z,47.53
2019-05-30T10:37:35.705Z,47.60
2019-05-30T10:42:33.178Z,46.35
2019-05-30T10:45:01.712Z,47.08
2019-05-30T10:47:30.202Z,47.09
2019-05-30T10:49:58.692Z,45.87
2019-05-30T10:52:27.177Z,46.47
2019-05-30T10:54:55.688Z,45.07
2019-05-30T10:57:24.115Z,47.23
2019-05-30T10:59:52.710Z,46.06
2019-05-30T11:02:21.367Z,45.95
2019-05-30T11:04:50.656Z,46.24
2019-05-30T11:07:28.121Z,44.99
2019-05-30T11:10:02.395Z,44.71
2019-05-30T11:12:30.906Z,44.63
2019-05-30T11:14:59.480Z,46.61
2019-05-30T11:17:27.956Z,43.72
2019-05-30T11:19:56.462Z,43.89
2019-05-30T11:22:24.975Z,46.72
2019-05-30T11:24:54.434Z,46.70
2019-05-30T11:27:22.936Z,46.22
2019-05-30T11:29:52.880Z,45.81
2019-05-30T11:32:21.386Z,46.13
2019-05-30T11:34:51.160Z,46.64
2019-05-30T11:37:19.659Z,46.67
2019-05-30T11:39:49.068Z,43.47
2019-05-30T11:42:17.567Z,43.43
2019-05-30T11:44:46.060Z,43.58
2019-05-30T11:47:14.554Z,43.39
2019-05-30T11:49:43.031Z,43.08
2019-05-30T11:52:11.541Z,42.16
2019-05-30T11:54:40.060Z,42.61
2019-05-30T11:57:08.546Z,42.63
2019-05-30T11:59:37.053Z,41.74
2019-05-30T12:02:05.627Z,41.13
2019-05-30T12:04:34.121Z,41.14
2019-05-30T12:07:02.648Z,39.76
2019-05-30T12:09:31.214Z,41.30
2019-05-30T12:11:59.746Z,40.79
2019-05-30T12:14:28.247Z,39.55
2019-05-30T12:16:57.319Z,38.71
2019-05-30T12:19:25.953Z,38.61
2019-05-30T12:21:55.563Z,37.71
2019-05-30T12:24:24.067Z,38.02
2019-05-30T12:26:53.815Z,39.19
2019-05-30T12:29:22.407Z,38.03
2019-05-30T12:31:52.022Z,38.27
2019-05-30T12:34:20.776Z,36.13
2019-05-30T12:36:49.268Z,36.58
2019-05-30T12:39:17.786Z,38.66
2019-05-30T12:41:46.343Z,38.43
2019-05-30T12:44:14.807Z,36.75
2019-05-30T12:46:43.308Z,36.77
2019-05-30T12:49:11.871Z,37.81
2019-05-30T12:51:40.382Z,36.70
2019-05-30T12:54:08.876Z,36.17
2019-05-30T12:56:37.404Z,35.31
2019-05-30T12:59:07.127Z,35.45
2019-05-30T13:01:35.744Z,35.93
2019-05-30T13:04:04.351Z,35.93
2019-05-30T13:06:32.801Z,34.14
2019-05-30T13:09:01.306Z,34.14
2019-05-30T13:11:29.809Z,32.78
2019-05-30T13:13:58.521Z,33.92
2019-05-30T13:16:27.155Z,30.66
2019-05-30T13:18:55.948Z,32.61
2019-05-30T13:21:24.453Z,30.89
2019-05-30T13:23:52.976Z,32.55
2019-05-30T13:26:21.450Z,34.34
2019-05-30T13:28:49.986Z,32.58
2019-05-30T13:31:18.526Z,34.39
2019-05-30T13:33:47.027Z,32.38
2019-05-30T13:36:15.489Z,31.60
2019-05-30T13:38:43.989Z,31.35
2019-05-30T13:41:12.518Z,31.43
2019-05-30T13:43:41.006Z,32.63
2019-05-30T13:46:09.694Z,32.35
2019-05-30T13:48:38.356Z,33.07
2019-05-30T13:51:07.127Z,31.50
2019-05-30T13:53:35.704Z,32.18
2019-05-30T13:56:05.417Z,29.67
2019-05-30T13:58:34.179Z,29.87
2019-05-30T14:01:07.749Z,31.47
2019-05-30T14:03:32.915Z,31.23
2019-05-30T14:06:02.994Z,29.89
2019-05-30T14:08:41.146Z,30.12
2019-05-30T14:11:02.523Z,30.96
2019-05-30T14:13:31.117Z,32.24
2019-05-30T14:16:00.787Z,31.40
2019-05-30T14:18:29.366Z,31.13
2019-05-30T14:20:57.856Z,30.91
2019-05-30T14:23:26.385Z,31.68
2019-05-30T14:25:54.881Z,31.29
2019-05-30T14:28:23.385Z,31.90
2019-05-30T14:30:51.945Z,31.98
2019-05-30T14:33:20.439Z,31.92
2019-05-30T14:35:48.930Z,32.17
2019-05-30T14:38:17.446Z,33.72
2019-05-30T14:40:45.936Z,33.64
2019-05-30T14:43:14.433Z,32.35
2019-05-30T14:45:43.025Z,32.36
2019-05-30T14:48:12.591Z,32.77
2019-05-30T14:50:41.195Z,31.39
2019-05-30T14:53:10.862Z,32.26
2019-05-30T14:55:39.485Z,31.52
2019-05-30T14:58:09.129Z,31.48
2019-05-30T15:00:37.647Z,31.68
2019-05-30T15:03:10.075Z,32.32
2019-05-30T15:05:36.421Z,31.78
2019-05-30T15:08:06.401Z,32.46
2019-05-30T15:10:34.930Z,33.16
2019-05-30T15:13:03.436Z,32.43
2019-05-30T15:15:31.974Z,32.70
2019-05-30T15:18:00.483Z,32.37
2019-05-30T15:20:28.994Z,32.32
2019-05-30T15:22:57.664Z,32.10
2019-05-30T15:25:26.147Z,31.48
2019-05-30T15:27:54.690Z,31.90
2019-05-30T15:30:23.328Z,31.39
2019-05-30T15:32:51.850Z,31.54
2019-05-30T15:35:20.410Z,31.83
2019-05-30T15:37:49.012Z,32.05
2019-05-30T15:40:17.643Z,32.08
2019-05-30T15:42:46.235Z,32.19
2019-05-30T15:45:17.992Z,32.86
2019-05-30T15:47:46.669Z,31.98
2019-05-30T15:50:16.978Z,31.94
2019-05-30T15:52:45.601Z,32.65
2019-05-30T15:55:15.385Z,32.66
2019-05-30T15:57:43.910Z,32.09
2019-05-30T16:00:14.222Z,32.01
2019-05-30T16:02:42.775Z,32.05
2019-05-30T16:05:12.534Z,32.36
2019-05-30T16:07:41.157Z,31.93
2019-05-30T16:10:10.849Z,31.64
2019-05-30T16:12:39.574Z,30.92
2019-05-30T16:15:08.806Z,31.91
2019-05-30T16:17:37.299Z,31.81
2019-05-30T16:20:07.532Z,30.99
2019-05-30T16:22:36.041Z,31.54
2019-05-30T16:25:05.910Z,32.66
2019-05-30T16:27:34.424Z,31.49
2019-05-30T16:30:03.403Z,30.98
2019-05-30T16:32:32.037Z,31.86
2019-05-30T16:35:00.575Z,31.91
2019-05-30T16:37:29.093Z,32.25
2019-05-30T16:40:05.911Z,32.08
2019-05-30T16:42:27.848Z,32.14
2019-05-30T16:44:56.339Z,32.97
2019-05-30T16:47:24.845Z,32.85
2019-05-30T16:49:53.376Z,33.24
2019-05-30T16:52:23.049Z,34.11
2019-05-30T16:54:51.643Z,33.73
2019-05-30T16:57:20.712Z,33.72
2019-05-30T16:59:49.403Z,34.66
2019-05-30T17:02:18.849Z,34.66
2019-05-30T17:04:47.444Z,34.59
2019-05-30T17:07:16.992Z,34.67
2019-05-30T17:09:45.621Z,34.84
2019-05-30T17:12:15.328Z,35.67
2019-05-30T17:14:43.958Z,35.67
2019-05-30T17:17:12.465Z,35.42
2019-05-30T17:19:40.948Z,35.48
2019-05-30T17:22:09.450Z,35.58
2019-05-30T17:24:38.058Z,35.92
2019-05-30T17:27:06.545Z,35.90
2019-05-30T17:29:35.041Z,35.90
2019-05-30T17:32:03.590Z,36.00
2019-05-30T17:34:32.082Z,35.94
2019-05-30T17:37:00.574Z,35.57
2019-05-30T17:39:29.112Z,35.75
2019-05-30T17:41:57.649Z,35.57
2019-05-30T17:44:27.194Z,35.72
2019-05-30T17:46:55.741Z,35.54
2019-05-30T17:49:24.232Z,36.10
2019-05-30T17:51:52.774Z,36.31
2019-05-30T17:54:21.758Z,36.49
2019-05-30T17:56:50.292Z,36.37
2019-05-30T17:59:20.173Z,36.37
2019-05-30T18:01:48.719Z,37.94
2019-05-30T18:04:17.216Z,38.96
2019-05-30T18:06:45.722Z,38.85
2019-05-30T18:09:14.223Z,39.99
2019-05-30T18:11:42.734Z,39.91
2019-05-30T18:14:11.409Z,41.38
2019-05-30T18:16:39.873Z,42.32
2019-05-30T18:19:08.521Z,41.86
2019-05-30T18:21:37.017Z,42.74
2019-05-30T18:24:06.037Z,43.69
2019-05-30T18:26:34.540Z,44.39
2019-05-30T18:29:03.059Z,44.00
2019-05-30T18:31:32.284Z,43.89
2019-05-30T18:34:00.947Z,44.14
2019-05-30T18:36:30.507Z,45.72
2019-05-30T18:38:59.027Z,45.31
2019-05-30T18:41:28.711Z,46.28
2019-05-30T18:43:57.610Z,46.68
2019-05-30T18:46:27.031Z,46.28
2019-05-30T18:48:55.572Z,47.52
2019-05-30T18:51:24.155Z,48.21
2019-05-30T18:53:52.682Z,48.48
2019-05-30T18:56:21.465Z,48.63
2019-05-30T18:58:49.976Z,48.88
2019-05-30T19:01:18.546Z,49.62
2019-05-30T19:03:47.368Z,49.78
2019-05-30T19:06:15.834Z,50.45
2019-05-30T19:08:44.431Z,52.28
2019-05-30T19:11:26.667Z,52.21
2019-05-30T19:13:43.203Z,52.70
2019-05-30T19:16:11.715Z,52.16
2019-05-30T19:18:40.280Z,52.42
2019-05-30T19:21:08.871Z,51.92
2019-05-30T19:23:39.649Z,51.54
2019-05-30T19:26:07.647Z,51.29
2019-05-30T19:28:36.694Z,51.05
2019-05-30T19:31:05.284Z,50.24
2019-05-30T19:33:34.862Z,50.41
2019-05-30T19:36:03.602Z,49.94
2019-05-30T19:38:33.255Z,50.79
2019-05-30T19:41:01.803Z,51.90
2019-05-30T19:43:31.642Z,52.04
2019-05-30T19:46:00.244Z,51.40
2019-05-30T19:48:28.772Z,52.01
2019-05-30T19:50:57.280Z,50.65
2019-05-30T19:53:25.782Z,50.05
2019-05-30T19:55:54.273Z,51.01
2019-05-30T19:58:22.766Z,51.37
2019-05-30T20:00:58.644Z,52.40
2019-05-30T20:03:35.707Z,52.80
2019-05-30T20:05:51.712Z,52.37
2019-05-30T20:08:20.253Z,53.26
2019-05-30T20:10:48.818Z,53.25
2019-05-30T20:13:17.444Z,54.10
2019-05-30T20:15:45.944Z,54.55
2019-05-30T20:18:14.486Z,54.14
2019-05-30T20:20:54.054Z,54.87
2019-05-30T20:23:13.409Z,54.59
2019-05-30T20:25:45.584Z,55.20
2019-05-30T20:28:12.229Z,55.64
2019-05-30T20:30:41.168Z,55.30
2019-05-30T20:33:09.833Z,56.43
2019-05-30T20:35:39.778Z,57.11
2019-05-30T20:38:08.629Z,57.47
2019-05-30T20:40:37.133Z,57.45
2019-05-30T20:43:05.684Z,57.20
2019-05-30T20:45:38.432Z,57.50
2019-05-30T20:48:04.499Z,58.00
2019-05-30T20:50:32.992Z,58.39
2019-05-30T20:53:01.503Z,58.22
2019-05-30T20:55:30.002Z,57.35
2019-05-30T20:57:58.517Z,57.94
2019-05-30T21:00:38.249Z,58.09
2019-05-30T21:03:07.091Z,59.20
2019-05-30T21:05:37.612Z,59.11
2019-05-30T21:08:06.852Z,58.94
2019-05-30T21:10:36.938Z,58.72
2019-05-30T21:13:05.866Z,58.81
2019-05-30T21:15:37.432Z,59.37
2019-05-30T21:18:06.299Z,59.43
2019-05-30T21:20:35.826Z,58.25
2019-05-30T21:23:04.507Z,58.07
2019-05-30T21:25:35.750Z,58.06
2019-05-30T21:28:03.255Z,58.58
2019-05-30T21:30:31.865Z,58.66
2019-05-30T21:33:00.363Z,58.67
2019-05-30T21:35:28.862Z,59.29
2019-05-30T21:37:57.318Z,58.47
2019-05-30T21:40:25.921Z,58.29
2019-05-30T21:43:05.438Z,57.20
2019-05-30T21:45:24.807Z,56.97
2019-05-30T21:47:53.349Z,58.07
2019-05-30T21:50:21.809Z,57.84
2019-05-30T21:52:50.355Z,58.47
2019-05-30T21:55:18.997Z,58.42
2019-05-30T21:57:48.160Z,58.43
2019-05-30T22:00:20.950Z,58.45
2019-05-30T22:02:54.407Z,58.61
2019-05-30T22:05:23.430Z,58.46
2019-05-30T22:07:51.948Z,59.14
2019-05-30T22:10:20.534Z,59.00
2019-05-30T22:12:49.722Z,59.04
2019-05-30T22:15:18.437Z,59.59
2019-05-30T22:17:47.889Z,59.49
2019-05-30T22:20:16.488Z,59.83
2019-05-30T22:22:46.034Z,60.53
2019-05-30T22:25:14.816Z,60.78
2019-05-30T22:27:44.517Z,61.55
2019-05-30T22:30:13.344Z,61.48
2019-05-30T22:32:42.602Z,61.18
2019-05-30T22:35:11.247Z,61.09
2019-05-30T22:37:39.741Z,60.47
2019-05-30T22:40:08.476Z,60.33
2019-05-30T22:42:37.000Z,60.84
2019-05-30T22:45:08.881Z,61.97
2019-05-30T22:47:37.483Z,62.00
2019-05-30T22:50:07.165Z,61.62
2019-05-30T22:52:35.657Z,62.28
2019-05-30T22:55:04.831Z,63.13
2019-05-30T22:57:33.332Z,62.90
2019-05-30T23:00:01.834Z,62.34
2019-05-30T23:02:30.344Z,62.00
2019-05-30T23:04:58.856Z,61.80
2019-05-30T23:07:27.450Z,61.52
2019-05-30T23:09:56.017Z,61.08
2019-05-30T23:12:24.469Z,61.31
2019-05-30T23:14:54.204Z,61.43
2019-05-30T23:17:22.841Z,60.91
2019-05-30T23:19:52.052Z,61.22
2019-05-30T23:22:21.697Z,61.03
2019-05-30T23:24:52.197Z,61.31
2019-05-30T23:27:20.504Z,61.02
2019-05-30T23:29:49.739Z,61.63
2019-05-30T23:32:18.286Z,61.66
2019-05-30T23:34:48.126Z,61.30
2019-05-30T23:37:16.675Z,61.99
2019-05-30T23:39:45.207Z,62.81
2019-05-30T23:42:13.724Z,62.17
2019-05-30T23:44:42.220Z,62.19
2019-05-30T23:47:10.769Z,61.45
2019-05-30T23:49:39.283Z,61.73
2019-05-30T23:52:07.851Z,61.69
2019-05-30T23:54:36.343Z,62.22
2019-05-30T23:57:04.905Z,62.31
2019-05-30T23:59:33.413Z,62.38
